Atlantic Beach, North Carolina
Current Conditions -  °F | °C
As of 7:58 AM on Wednesday 22 Oct 2014 (Local Time) from KMRH Reporting Station
Clear Clear  
Wind Chill: 13°   Ceiling: Unl
Heat Index: 13°   Visibility: 10mi
Dew Point:   Wind: 12mph
Humidity: 77%   Direction: 310°NW
Pressure: 29.91"   Gusts: NA
Location:  34.7°N, 76.74°W
Report Text: KMRH 221158Z AUTO 31010KT 10SM CLR 13/09 A2991 RMK AO2 SLP127 T01280089 10156 20128 53016 TSNO
Loading
Personal Weather Stations






























Interactive Weather Map
Tropical Storm Tracking
New forecast layout! Learn more

10-Day Weather Forecast

Advertisements
Track Severe Weather on mobile